createdAt,value
2023-03-17T00:00:53.993Z,5.83
2023-03-17T00:01:53.985Z,5.77
2023-03-17T00:02:54.020Z,5.73
2023-03-17T00:03:54.022Z,5.74
2023-03-17T00:04:53.954Z,5.71
2023-03-17T00:05:53.944Z,5.68
2023-03-17T00:06:53.955Z,5.52
2023-03-17T00:07:53.928Z,5.37
2023-03-17T00:08:53.927Z,5.43
2023-03-17T00:09:53.908Z,5.64
2023-03-17T00:10:53.876Z,5.70
2023-03-17T00:11:53.883Z,5.73
2023-03-17T00:12:53.850Z,5.77
2023-03-17T00:13:53.891Z,5.75
2023-03-17T00:14:53.836Z,5.70
2023-03-17T00:15:53.864Z,5.71
2023-03-17T00:16:53.811Z,5.81
2023-03-17T00:17:53.802Z,5.71
2023-03-17T00:18:53.814Z,5.67
2023-03-17T00:19:53.848Z,5.60
2023-03-17T00:20:53.769Z,5.56
2023-03-17T00:21:53.778Z,5.70
2023-03-17T00:22:53.746Z,5.83
2023-03-17T00:23:53.771Z,5.86
2023-03-17T00:24:53.718Z,5.93
2023-03-17T00:25:53.747Z,5.92
2023-03-17T00:26:53.763Z,5.88
2023-03-17T00:27:53.697Z,5.93
2023-03-17T00:28:53.711Z,5.93
2023-03-17T00:29:53.674Z,5.95
2023-03-17T00:30:53.694Z,5.95
2023-03-17T00:31:53.682Z,5.89
2023-03-17T00:32:53.765Z,5.92
2023-03-17T00:33:53.628Z,5.86
2023-03-17T00:34:53.618Z,5.73
2023-03-17T00:35:53.624Z,5.68
2023-03-17T00:36:53.849Z,5.73
2023-03-17T00:37:53.630Z,5.81
2023-03-17T00:38:53.592Z,5.81
2023-03-17T00:39:53.568Z,5.68
2023-03-17T00:40:53.556Z,5.67
2023-03-17T00:41:53.566Z,5.57
2023-03-17T00:42:53.556Z,5.57
2023-03-17T00:43:53.525Z,5.67
2023-03-17T00:44:53.499Z,5.74
2023-03-17T00:45:53.491Z,5.73
2023-03-17T00:46:53.530Z,5.77
2023-03-17T00:47:53.528Z,5.73
2023-03-17T00:48:53.499Z,5.73
2023-03-17T00:49:53.472Z,5.70
2023-03-17T00:50:53.462Z,5.66
2023-03-17T00:51:53.429Z,5.70
2023-03-17T00:52:53.416Z,5.70
2023-03-17T00:53:53.417Z,5.74
2023-03-17T00:54:53.577Z,5.74
2023-03-17T00:55:53.377Z,5.66
2023-03-17T00:56:53.387Z,5.60
2023-03-17T00:57:53.361Z,5.56
2023-03-17T00:58:53.356Z,5.46
2023-03-17T00:59:53.338Z,5.38
2023-03-17T01:00:53.373Z,5.46
2023-03-17T01:01:53.357Z,5.59
2023-03-17T01:02:53.317Z,5.73
2023-03-17T01:03:53.291Z,5.86
2023-03-17T01:05:05.471Z,5.93
2023-03-17T01:05:54.314Z,5.75
2023-03-17T01:06:53.283Z,5.63
2023-03-17T01:07:53.252Z,5.56
2023-03-17T01:08:53.294Z,5.52
2023-03-17T01:09:53.251Z,5.56
2023-03-17T01:10:53.258Z,5.73
2023-03-17T01:11:53.236Z,5.83
2023-03-17T01:12:53.203Z,5.78
2023-03-17T01:13:53.244Z,5.77
2023-03-17T01:14:53.199Z,5.81
2023-03-17T01:15:53.250Z,5.96
2023-03-17T01:16:53.188Z,6.06
2023-03-17T01:17:53.216Z,6.13
2023-03-17T01:18:53.216Z,6.09
2023-03-17T01:19:53.139Z,6.03
2023-03-17T01:20:53.144Z,6.06
2023-03-17T01:21:53.100Z,6.07
2023-03-17T01:22:53.079Z,6.09
2023-03-17T01:23:53.147Z,6.10
2023-03-17T01:24:53.060Z,5.83
2023-03-17T01:25:53.055Z,5.89
2023-03-17T01:26:53.065Z,5.98
2023-03-17T01:27:53.029Z,6.01
2023-03-17T01:28:53.112Z,5.98
2023-03-17T01:29:53.022Z,5.92
2023-03-17T01:30:52.996Z,5.93
2023-03-17T01:31:53.073Z,6.00
2023-03-17T01:32:53.056Z,6.01
2023-03-17T01:33:53.021Z,6.01
2023-03-17T01:34:52.970Z,6.01
2023-03-17T01:35:53.025Z,5.95
2023-03-17T01:36:52.976Z,5.89
2023-03-17T01:37:52.933Z,5.88
2023-03-17T01:38:52.928Z,5.82
2023-03-17T01:39:52.957Z,5.89
2023-03-17T01:40:52.972Z,5.98
2023-03-17T01:41:52.872Z,5.96
2023-03-17T01:42:52.863Z,5.89
2023-03-17T01:43:52.865Z,5.88
2023-03-17T01:44:52.853Z,5.89
2023-03-17T01:45:52.913Z,5.91
2023-03-17T01:46:52.846Z,5.92
2023-03-17T01:47:52.807Z,5.83
2023-03-17T01:48:52.805Z,5.83
2023-03-17T01:49:52.782Z,5.75
2023-03-17T01:50:52.786Z,5.81
2023-03-17T01:51:52.810Z,5.82
2023-03-17T01:52:52.772Z,5.89
2023-03-17T01:53:52.775Z,5.86
2023-03-17T01:54:52.733Z,5.83
2023-03-17T01:55:52.751Z,5.73
2023-03-17T01:56:52.722Z,5.71
2023-03-17T01:57:52.733Z,5.73
2023-03-17T01:58:52.719Z,5.71
2023-03-17T01:59:52.696Z,5.67
2023-03-17T02:00:52.832Z,5.85
2023-03-17T02:01:52.677Z,5.85
2023-03-17T02:02:52.677Z,5.91
2023-03-17T02:03:52.740Z,5.89
2023-03-17T02:04:52.624Z,5.92
2023-03-17T02:05:52.814Z,5.89
2023-03-17T02:06:58.488Z,5.92
2023-03-17T02:07:53.626Z,5.98
2023-03-17T02:08:52.583Z,5.82
2023-03-17T02:09:52.643Z,5.77
2023-03-17T02:10:52.553Z,5.74
2023-03-17T02:11:52.553Z,5.74
2023-03-17T02:12:52.533Z,5.50
2023-03-17T02:13:52.556Z,5.49
2023-03-17T02:14:52.536Z,5.57
2023-03-17T02:15:52.494Z,5.56
2023-03-17T02:16:52.502Z,5.52
2023-03-17T02:17:52.509Z,5.52
2023-03-17T02:18:52.478Z,5.57
2023-03-17T02:19:52.473Z,5.64
2023-03-17T02:20:52.477Z,5.66
2023-03-17T02:21:52.450Z,5.57
2023-03-17T02:22:52.467Z,5.57
2023-03-17T02:23:52.416Z,5.50
2023-03-17T02:24:52.404Z,5.53
2023-03-17T02:25:52.441Z,5.52
2023-03-17T02:26:52.405Z,5.53
2023-03-17T02:27:52.367Z,5.52
2023-03-17T02:28:52.371Z,5.35
2023-03-17T02:29:52.354Z,5.38
2023-03-17T02:30:52.390Z,5.38
2023-03-17T02:31:52.332Z,5.38
2023-03-17T02:32:52.451Z,5.35
2023-03-17T02:33:52.306Z,5.30
2023-03-17T02:34:52.287Z,5.28
2023-03-17T02:35:52.338Z,5.25
2023-03-17T02:36:52.371Z,5.22
2023-03-17T02:37:52.330Z,5.17
2023-03-17T02:38:52.252Z,5.12
2023-03-17T02:39:52.246Z,5.02
2023-03-17T02:40:52.244Z,4.99
2023-03-17T02:41:52.228Z,4.76
2023-03-17T02:42:52.210Z,4.86
2023-03-17T02:43:52.221Z,4.86
2023-03-17T02:44:52.195Z,4.88
2023-03-17T02:45:52.275Z,4.96
2023-03-17T02:46:52.169Z,5.01
2023-03-17T02:47:52.161Z,4.96
2023-03-17T02:48:52.140Z,4.99
2023-03-17T02:49:52.228Z,5.04
2023-03-17T02:50:52.125Z,5.02
2023-03-17T02:51:52.119Z,5.07
2023-03-17T02:52:52.106Z,5.05
2023-03-17T02:53:52.095Z,5.05
2023-03-17T02:54:52.113Z,4.95
2023-03-17T02:55:52.054Z,4.95
2023-03-17T02:56:52.062Z,4.96
2023-03-17T02:57:52.059Z,5.05
2023-03-17T02:58:52.033Z,5.10
2023-03-17T02:59:52.036Z,5.10
2023-03-17T03:00:52.035Z,5.02
2023-03-17T03:01:52.052Z,4.99
2023-03-17T03:02:52.069Z,5.02
2023-03-17T03:03:51.974Z,4.95
2023-03-17T03:04:51.955Z,4.94
2023-03-17T03:05:51.947Z,4.92
2023-03-17T03:06:51.965Z,4.94
2023-03-17T03:07:51.935Z,4.95
2023-03-17T03:08:51.931Z,4.79
2023-03-17T03:09:51.950Z,4.69
2023-03-17T03:10:51.896Z,4.75
2023-03-17T03:11:51.961Z,4.79
2023-03-17T03:12:51.866Z,4.83
2023-03-17T03:13:51.893Z,4.86
2023-03-17T03:14:51.869Z,4.80
2023-03-17T03:15:51.891Z,4.88
2023-03-17T03:16:51.844Z,4.98
2023-03-17T03:17:51.847Z,5.10
2023-03-17T03:18:51.810Z,5.17
2023-03-17T03:19:51.787Z,5.23
2023-03-17T03:20:51.784Z,5.27
2023-03-17T03:21:51.780Z,5.32
2023-03-17T03:22:51.774Z,5.35
2023-03-17T03:23:51.803Z,5.34
2023-03-17T03:24:51.742Z,5.31
2023-03-17T03:25:51.738Z,5.34
2023-03-17T03:26:51.710Z,5.32
2023-03-17T03:27:51.733Z,5.27
2023-03-17T03:28:51.718Z,5.20
2023-03-17T03:29:51.701Z,5.09
2023-03-17T03:30:51.702Z,4.84
2023-03-17T03:31:51.668Z,4.86
2023-03-17T03:32:51.718Z,5.04
2023-03-17T03:33:51.655Z,5.16
2023-03-17T03:34:51.656Z,5.20
2023-03-17T03:35:51.653Z,5.23
2023-03-17T03:36:51.611Z,5.27
2023-03-17T03:37:51.616Z,5.32
2023-03-17T03:38:51.596Z,5.35
2023-03-17T03:39:51.595Z,5.40
2023-03-17T03:40:51.584Z,5.43
2023-03-17T03:41:51.547Z,5.52
2023-03-17T03:42:51.628Z,5.53
2023-03-17T03:43:51.526Z,5.56
2023-03-17T03:44:51.510Z,5.52
2023-03-17T03:45:51.564Z,5.56
2023-03-17T03:46:51.580Z,5.60
2023-03-17T03:47:51.479Z,5.46
2023-03-17T03:48:51.492Z,5.45
2023-03-17T03:49:51.461Z,5.48
2023-03-17T03:50:51.490Z,5.34
2023-03-17T03:51:51.468Z,5.30
2023-03-17T03:52:51.419Z,5.19
2023-03-17T03:53:51.419Z,5.31
2023-03-17T03:54:51.408Z,5.40
2023-03-17T03:55:51.394Z,5.48
2023-03-17T03:56:51.389Z,5.35
2023-03-17T03:57:51.431Z,5.40
2023-03-17T03:58:51.364Z,5.43
2023-03-17T03:59:51.345Z,5.53
2023-03-17T04:00:51.349Z,5.46
2023-03-17T04:01:51.333Z,5.48
2023-03-17T04:02:51.365Z,5.50
2023-03-17T04:03:51.365Z,5.50
2023-03-17T04:04:51.344Z,5.60
2023-03-17T04:05:51.280Z,5.70
2023-03-17T04:06:51.276Z,5.77
2023-03-17T04:07:51.268Z,5.82
2023-03-17T04:08:51.271Z,5.83
2023-03-17T04:09:51.267Z,5.83
2023-03-17T04:10:51.225Z,5.74
2023-03-17T04:11:51.212Z,5.74
2023-03-17T04:12:51.267Z,5.73
2023-03-17T04:13:51.206Z,5.77
2023-03-17T04:14:51.218Z,5.66
2023-03-17T04:15:51.201Z,5.52
2023-03-17T04:16:51.237Z,5.56
2023-03-17T04:17:51.162Z,5.60
2023-03-17T04:18:51.223Z,5.63
2023-03-17T04:19:51.127Z,5.57
2023-03-17T04:20:51.156Z,5.64
2023-03-17T04:21:52.825Z,5.71
2023-03-17T04:22:51.100Z,5.74
2023-03-17T04:23:51.120Z,5.83
2023-03-17T04:24:51.104Z,5.77
2023-03-17T04:25:51.080Z,5.82
2023-03-17T04:26:51.072Z,5.86
2023-03-17T04:27:51.031Z,5.91
2023-03-17T04:28:51.033Z,5.88
2023-03-17T04:29:51.007Z,5.92
2023-03-17T04:30:51.032Z,5.92
2023-03-17T04:31:51.043Z,5.96
2023-03-17T04:32:51.005Z,5.88
2023-03-17T04:33:50.970Z,5.83
2023-03-17T04:34:50.993Z,5.89
2023-03-17T04:35:51.036Z,5.85
2023-03-17T04:36:50.958Z,5.77
2023-03-17T04:37:51.088Z,5.68
2023-03-17T04:38:50.949Z,5.74
2023-03-17T04:39:50.901Z,5.73
2023-03-17T04:40:50.901Z,5.71
2023-03-17T04:41:50.903Z,5.66
2023-03-17T04:42:50.890Z,5.64
2023-03-17T04:43:50.896Z,5.60
2023-03-17T04:44:50.850Z,5.64
2023-03-17T04:45:50.940Z,5.56
2023-03-17T04:46:50.836Z,5.52
2023-03-17T04:47:50.821Z,5.30
2023-03-17T04:48:50.828Z,5.22
2023-03-17T04:49:50.821Z,5.23
2023-03-17T04:50:50.812Z,5.28
2023-03-17T04:51:50.767Z,5.28
2023-03-17T04:52:50.769Z,5.34
2023-03-17T04:53:50.755Z,5.27
2023-03-17T04:54:50.780Z,5.27
2023-03-17T04:55:50.762Z,5.23
2023-03-17T04:56:50.715Z,5.23
2023-03-17T04:57:50.708Z,5.13
2023-03-17T04:58:50.724Z,4.98
2023-03-17T04:59:50.781Z,4.80
2023-03-17T05:00:50.692Z,4.69
2023-03-17T05:01:50.683Z,4.65
2023-03-17T05:02:50.643Z,4.67
2023-03-17T05:03:50.657Z,4.72
2023-03-17T05:04:50.622Z,4.76
2023-03-17T05:05:50.695Z,4.75
2023-03-17T05:06:50.601Z,4.75
2023-03-17T05:07:50.663Z,4.73
2023-03-17T05:08:50.591Z,4.70
2023-03-17T05:09:50.573Z,4.62
2023-03-17T05:10:50.563Z,4.61
2023-03-17T05:11:50.580Z,4.59
2023-03-17T05:12:50.540Z,4.37
2023-03-17T05:13:50.533Z,4.22
2023-03-17T05:14:50.509Z,4.14
2023-03-17T05:15:50.549Z,4.21
2023-03-17T05:16:50.551Z,4.32
2023-03-17T05:17:50.495Z,4.44
2023-03-17T05:18:50.472Z,4.43
2023-03-17T05:19:50.463Z,4.46
2023-03-17T05:20:50.444Z,4.39
2023-03-17T05:21:50.453Z,4.37
2023-03-17T05:22:50.458Z,4.42
2023-03-17T05:23:50.423Z,4.40
2023-03-17T05:24:50.396Z,4.42
2023-03-17T05:25:50.420Z,4.29
2023-03-17T05:26:50.424Z,4.28
2023-03-17T05:27:50.385Z,4.25
2023-03-17T05:28:50.402Z,4.07
2023-03-17T05:29:50.361Z,4.04
2023-03-17T05:30:50.393Z,4.10
2023-03-17T05:31:50.325Z,4.18
2023-03-17T05:32:50.313Z,4.24
2023-03-17T05:33:50.322Z,4.34
2023-03-17T05:34:50.320Z,4.47
2023-03-17T05:35:50.321Z,4.55
2023-03-17T05:36:50.263Z,4.42
2023-03-17T05:37:50.263Z,4.19
2023-03-17T05:38:50.238Z,4.07
2023-03-17T05:39:50.233Z,4.04
2023-03-17T05:40:50.261Z,4.21
2023-03-17T05:41:50.253Z,4.39
2023-03-17T05:42:50.270Z,4.44
2023-03-17T05:43:50.200Z,4.46
2023-03-17T05:44:50.171Z,4.50
2023-03-17T05:45:50.215Z,4.40
2023-03-17T05:46:50.190Z,4.40
2023-03-17T05:47:50.180Z,4.39
2023-03-17T05:48:50.150Z,4.39
2023-03-17T05:49:50.131Z,4.33
2023-03-17T05:50:50.171Z,4.29
2023-03-17T05:51:50.132Z,4.34
2023-03-17T05:52:50.073Z,4.34
2023-03-17T05:53:50.105Z,4.33
2023-03-17T05:54:50.161Z,4.26
2023-03-17T05:55:50.061Z,4.21
2023-03-17T05:56:50.097Z,4.25
2023-03-17T05:57:50.074Z,4.25
2023-03-17T05:58:50.022Z,4.28
2023-03-17T05:59:50.020Z,4.25
2023-03-17T06:00:50.034Z,4.22
2023-03-17T06:01:49.987Z,4.18
2023-03-17T06:02:50.051Z,4.14
2023-03-17T06:03:49.982Z,4.14
2023-03-17T06:04:49.972Z,4.15
2023-03-17T06:05:49.935Z,4.16
2023-03-17T06:06:49.930Z,4.08
2023-03-17T06:07:54.926Z,4.04
2023-03-17T06:08:51.088Z,4.04
2023-03-17T06:09:49.895Z,4.14
2023-03-17T06:10:49.889Z,4.21
2023-03-17T06:11:49.864Z,4.25
2023-03-17T06:12:49.872Z,4.18
2023-03-17T06:13:49.872Z,4.16
2023-03-17T06:14:49.888Z,4.22
2023-03-17T06:15:49.837Z,4.32
2023-03-17T06:16:49.816Z,4.46
2023-03-17T06:17:49.810Z,4.62
2023-03-17T06:18:49.801Z,4.73
2023-03-17T06:19:49.807Z,4.88
2023-03-17T06:20:49.808Z,4.98
2023-03-17T06:21:49.753Z,5.02
2023-03-17T06:23:03.283Z,5.09
2023-03-17T06:23:50.749Z,4.96
2023-03-17T06:24:49.731Z,4.99
2023-03-17T06:25:49.750Z,4.99
2023-03-17T06:26:49.731Z,4.92
2023-03-17T06:27:49.694Z,5.04
2023-03-17T06:28:49.681Z,5.16
2023-03-17T06:29:49.687Z,5.23
2023-03-17T06:30:49.733Z,5.34
2023-03-17T06:31:49.702Z,5.43
2023-03-17T06:32:49.667Z,5.48
2023-03-17T06:33:49.638Z,5.56
2023-03-17T06:34:49.613Z,5.74
2023-03-17T06:35:49.620Z,5.68
2023-03-17T06:36:49.617Z,5.74
2023-03-17T06:37:49.605Z,5.82
2023-03-17T06:38:49.589Z,6.00
2023-03-17T06:39:49.548Z,6.11
2023-03-17T06:40:49.545Z,6.30
2023-03-17T06:41:49.533Z,6.26
2023-03-17T06:42:49.582Z,6.33
2023-03-17T06:43:49.520Z,6.33
2023-03-17T06:44:49.527Z,6.32
2023-03-17T06:45:49.523Z,6.44
2023-03-17T06:46:49.541Z,6.50
2023-03-17T06:47:49.464Z,6.62
2023-03-17T06:48:49.553Z,6.69
2023-03-17T06:49:49.440Z,6.76
2023-03-17T06:50:49.432Z,6.71
2023-03-17T06:51:49.421Z,6.71
2023-03-17T06:52:49.422Z,6.90
2023-03-17T06:53:49.478Z,6.97
2023-03-17T06:54:49.403Z,7.02
2023-03-17T06:55:49.390Z,7.09
2023-03-17T06:56:49.363Z,7.09
2023-03-17T06:57:51.174Z,7.23
2023-03-17T06:58:49.343Z,7.23
2023-03-17T06:59:49.370Z,7.41
2023-03-17T07:00:49.338Z,7.53
2023-03-17T07:01:49.379Z,7.67
2023-03-17T07:02:49.307Z,7.75
2023-03-17T07:03:49.303Z,7.66
2023-03-17T07:04:49.355Z,7.42
2023-03-17T07:05:49.321Z,7.45
2023-03-17T07:06:49.264Z,7.53
2023-03-17T07:07:49.262Z,7.40
2023-03-17T07:08:49.241Z,7.44
2023-03-17T07:09:49.222Z,7.47
2023-03-17T07:10:49.251Z,7.55
2023-03-17T07:11:49.238Z,7.69
2023-03-17T07:12:49.201Z,7.71
2023-03-17T07:13:49.163Z,7.77
2023-03-17T07:14:49.176Z,7.85
2023-03-17T07:15:49.207Z,7.99
2023-03-17T07:16:49.311Z,8.10
2023-03-17T07:17:49.285Z,8.00
2023-03-17T07:18:49.113Z,8.12
2023-03-17T07:19:49.107Z,8.11
2023-03-17T07:20:49.095Z,8.42
2023-03-17T07:21:49.078Z,8.62
2023-03-17T07:22:49.108Z,8.37
2023-03-17T07:23:49.061Z,8.47
2023-03-17T07:24:49.140Z,8.65
2023-03-17T07:25:49.022Z,8.62
2023-03-17T07:26:49.077Z,8.55
2023-03-17T07:27:49.014Z,8.57
2023-03-17T07:28:49.063Z,8.73
2023-03-17T07:29:48.998Z,8.76
2023-03-17T07:30:48.989Z,8.58
2023-03-17T07:31:49.018Z,8.72
2023-03-17T07:32:49.061Z,8.81
2023-03-17T07:33:48.981Z,8.93
2023-03-17T07:34:48.993Z,8.91
2023-03-17T07:35:48.992Z,8.69
2023-03-17T07:36:48.930Z,8.65
2023-03-17T07:37:48.897Z,8.73
2023-03-17T07:38:48.910Z,8.94
2023-03-17T07:39:48.882Z,8.97
2023-03-17T07:40:48.910Z,9.18
2023-03-17T07:41:48.927Z,9.09
2023-03-17T07:42:48.873Z,8.81
2023-03-17T07:43:48.840Z,8.87
2023-03-17T07:44:48.814Z,8.86
2023-03-17T07:45:48.830Z,8.88
2023-03-17T07:46:48.829Z,9.02
2023-03-17T07:47:48.790Z,9.15
2023-03-17T07:48:48.767Z,9.31
2023-03-17T07:49:48.851Z,9.45
2023-03-17T07:50:48.768Z,9.49
2023-03-17T07:51:48.780Z,9.38
2023-03-17T07:52:48.733Z,9.30
2023-03-17T07:53:48.768Z,9.28
2023-03-17T07:54:48.764Z,9.23
2023-03-17T07:55:48.683Z,9.43
2023-03-17T07:56:48.697Z,9.53
2023-03-17T07:57:48.784Z,9.49
2023-03-17T07:58:48.690Z,9.32
2023-03-17T07:59:48.686Z,9.27
2023-03-17T08:00:48.650Z,9.24
2023-03-17T08:01:48.718Z,9.39
2023-03-17T08:03:03.156Z,9.53
2023-03-17T08:03:49.661Z,9.61
2023-03-17T08:04:48.619Z,9.56
2023-03-17T08:05:48.638Z,9.66
2023-03-17T08:06:48.599Z,9.67
2023-03-17T08:07:48.561Z,9.73
2023-03-17T08:08:48.563Z,9.79
2023-03-17T08:09:48.558Z,9.68
2023-03-17T08:10:48.550Z,9.73
2023-03-17T08:11:48.516Z,9.76
2023-03-17T08:12:48.502Z,9.85
2023-03-17T08:13:48.496Z,9.97
2023-03-17T08:14:48.525Z,10.06
2023-03-17T08:15:48.503Z,10.26
2023-03-17T08:16:48.595Z,10.34
2023-03-17T08:17:48.447Z,10.26
2023-03-17T08:18:48.433Z,10.09
2023-03-17T08:19:48.498Z,10.12
2023-03-17T08:20:48.434Z,10.34
2023-03-17T08:21:48.471Z,10.51
2023-03-17T08:22:48.425Z,10.47
2023-03-17T08:23:48.402Z,10.51
2023-03-17T08:24:48.411Z,10.73
2023-03-17T08:25:49.388Z,10.76
2023-03-17T08:26:48.359Z,10.59
2023-03-17T08:27:48.339Z,10.55
2023-03-17T08:28:48.331Z,10.52
2023-03-17T08:29:48.314Z,10.59
2023-03-17T08:30:50.478Z,10.39
2023-03-17T08:31:48.481Z,10.55
2023-03-17T08:32:48.332Z,10.56
2023-03-17T08:33:48.307Z,10.33
2023-03-17T08:34:48.267Z,10.43
2023-03-17T08:35:48.255Z,10.62
2023-03-17T08:36:48.239Z,10.68
2023-03-17T08:37:48.257Z,10.62
2023-03-17T08:38:48.215Z,10.55
2023-03-17T08:39:48.200Z,10.59
2023-03-17T08:40:48.186Z,10.70
2023-03-17T08:41:48.165Z,10.65
2023-03-17T08:42:48.247Z,10.91
2023-03-17T08:43:48.143Z,10.96
2023-03-17T08:44:48.154Z,10.80
2023-03-17T08:45:48.175Z,10.92
2023-03-17T08:46:48.106Z,11.09
2023-03-17T08:47:48.095Z,11.06
2023-03-17T08:48:48.179Z,10.98
2023-03-17T08:49:48.090Z,10.96
2023-03-17T08:50:48.123Z,10.98
2023-03-17T08:51:48.065Z,11.07
2023-03-17T08:52:48.069Z,11.20
2023-03-17T08:53:48.037Z,11.07
2023-03-17T08:54:48.048Z,11.17
2023-03-17T08:55:48.019Z,10.74
2023-03-17T08:56:48.017Z,10.80
2023-03-17T08:57:48.002Z,11.16
2023-03-17T08:58:47.977Z,11.41
2023-03-17T08:59:47.968Z,11.38
2023-03-17T09:00:47.999Z,11.50
2023-03-17T09:01:47.993Z,11.71
2023-03-17T09:02:48.023Z,11.77
2023-03-17T09:03:48.042Z,12.04
2023-03-17T09:04:47.911Z,12.16
2023-03-17T09:05:47.963Z,12.21
2023-03-17T09:07:02.185Z,12.30
2023-03-17T09:07:48.928Z,12.12
2023-03-17T09:08:47.880Z,11.87
2023-03-17T09:09:47.871Z,11.93
2023-03-17T09:10:47.842Z,11.96
2023-03-17T09:11:47.830Z,12.21
2023-03-17T09:12:47.859Z,12.48
2023-03-17T09:13:47.855Z,12.31
2023-03-17T09:14:49.283Z,12.46
2023-03-17T09:15:48.666Z,12.23
2023-03-17T09:16:47.772Z,12.38
2023-03-17T09:17:47.843Z,11.93
2023-03-17T09:18:47.741Z,11.25
2023-03-17T09:19:47.731Z,11.50
2023-03-17T09:20:47.720Z,11.53
2023-03-17T09:21:47.724Z,11.75
2023-03-17T09:22:47.713Z,11.89
2023-03-17T09:23:47.755Z,11.97
2023-03-17T09:24:47.686Z,11.99
2023-03-17T09:25:47.685Z,11.89
2023-03-17T09:26:47.653Z,12.08
2023-03-17T09:27:47.636Z,12.19
2023-03-17T09:28:47.834Z,11.93
2023-03-17T09:29:47.638Z,12.08
2023-03-17T09:30:47.672Z,12.05
2023-03-17T09:31:47.620Z,12.31
2023-03-17T09:32:47.620Z,12.26
2023-03-17T09:33:47.574Z,12.19
2023-03-17T09:34:49.620Z,12.15
2023-03-17T09:35:47.576Z,12.09
2023-03-17T09:36:47.545Z,11.75
2023-03-17T09:37:47.552Z,11.89
2023-03-17T09:38:47.530Z,12.05
2023-03-17T09:39:47.519Z,12.33
2023-03-17T09:40:47.531Z,12.51
2023-03-17T09:41:47.480Z,12.63
2023-03-17T09:42:47.485Z,12.84
2023-03-17T09:43:47.453Z,12.75
2023-03-17T09:44:47.447Z,12.70
2023-03-17T09:45:47.453Z,12.51
2023-03-17T09:46:47.551Z,12.74
2023-03-17T09:47:47.406Z,12.66
2023-03-17T09:48:47.529Z,12.60
2023-03-17T09:49:47.408Z,12.63
2023-03-17T09:50:47.387Z,12.33
2023-03-17T09:51:47.368Z,12.16
2023-03-17T09:52:48.785Z,12.39
2023-03-17T09:53:47.356Z,12.49
2023-03-17T09:54:47.353Z,12.54
2023-03-17T09:55:47.313Z,12.30
2023-03-17T09:56:47.300Z,12.20
2023-03-17T09:57:47.285Z,12.37
2023-03-17T09:58:48.996Z,12.13
2023-03-17T09:59:47.276Z,12.12
2023-03-17T10:00:47.276Z,12.29
2023-03-17T10:01:47.304Z,12.48
2023-03-17T10:02:47.238Z,12.51
2023-03-17T10:03:47.301Z,12.63
2023-03-17T10:04:47.271Z,12.79
2023-03-17T10:05:47.409Z,12.96
2023-03-17T10:06:47.188Z,13.17
2023-03-17T10:07:47.208Z,13.25
2023-03-17T10:08:47.170Z,13.17
2023-03-17T10:09:47.205Z,13.20
2023-03-17T10:10:47.137Z,13.03
2023-03-17T10:11:47.132Z,12.71
2023-03-17T10:12:47.142Z,12.66
2023-03-17T10:13:47.133Z,12.88
2023-03-17T10:14:48.148Z,13.30
2023-03-17T10:15:47.190Z,13.24
2023-03-17T10:16:47.082Z,13.49
2023-03-17T10:17:47.158Z,13.49
2023-03-17T10:18:47.050Z,13.25
2023-03-17T10:19:47.045Z,13.25
2023-03-17T10:20:47.972Z,13.55
2023-03-17T10:21:47.092Z,13.17
2023-03-17T10:22:47.022Z,13.37
2023-03-17T10:23:47.022Z,13.44
2023-03-17T10:24:47.018Z,13.71
2023-03-17T10:25:46.979Z,13.89
2023-03-17T10:26:46.984Z,13.67
2023-03-17T10:27:47.051Z,13.76
2023-03-17T10:28:46.953Z,13.99
2023-03-17T10:29:48.439Z,14.17
2023-03-17T10:30:46.931Z,14.07
2023-03-17T10:31:46.920Z,13.81
2023-03-17T10:32:47.052Z,13.98
2023-03-17T10:33:46.909Z,14.14
2023-03-17T10:34:46.922Z,14.28
2023-03-17T10:35:46.872Z,14.19
2023-03-17T10:36:46.857Z,13.99
2023-03-17T10:37:46.842Z,13.95
2023-03-17T10:38:46.832Z,14.31
2023-03-17T10:39:46.846Z,14.35
2023-03-17T10:40:46.802Z,14.39
2023-03-17T10:41:46.823Z,14.01
2023-03-17T10:42:46.785Z,13.87
2023-03-17T10:43:46.781Z,14.06
2023-03-17T10:44:46.756Z,14.37
2023-03-17T10:45:46.787Z,14.57
2023-03-17T10:46:46.827Z,14.81
2023-03-17T10:47:46.731Z,14.72
2023-03-17T10:48:46.716Z,14.65
2023-03-17T10:49:46.706Z,14.72
2023-03-17T10:50:48.657Z,14.61
2023-03-17T10:51:46.714Z,14.60
2023-03-17T10:52:46.713Z,14.90
2023-03-17T10:53:46.657Z,15.23
2023-03-17T10:54:46.654Z,15.38
2023-03-17T10:55:46.636Z,15.01
2023-03-17T10:56:46.658Z,15.30
2023-03-17T10:57:46.596Z,15.30
2023-03-17T10:58:46.595Z,15.33
2023-03-17T10:59:46.577Z,15.03
2023-03-17T11:00:46.596Z,15.30
2023-03-17T11:01:46.559Z,15.56
2023-03-17T11:02:46.590Z,15.61
2023-03-17T11:03:46.619Z,15.28
2023-03-17T11:04:46.533Z,15.42
2023-03-17T11:05:46.530Z,15.54
2023-03-17T11:06:46.522Z,15.67
2023-03-17T11:07:46.518Z,15.33
2023-03-17T11:08:46.530Z,15.31
2023-03-17T11:09:46.517Z,15.39
2023-03-17T11:10:46.469Z,15.49
2023-03-17T11:11:46.474Z,15.26
2023-03-17T11:12:46.446Z,15.15
2023-03-17T11:13:46.457Z,15.42
2023-03-17T11:14:46.440Z,15.48
2023-03-17T11:15:46.443Z,15.28
2023-03-17T11:16:46.495Z,15.41
2023-03-17T11:17:46.404Z,15.36
2023-03-17T11:18:46.375Z,15.46
2023-03-17T11:19:46.369Z,15.66
2023-03-17T11:20:46.409Z,15.86
2023-03-17T11:21:46.344Z,15.36
2023-03-17T11:22:46.336Z,15.26
2023-03-17T11:23:46.338Z,15.28
2023-03-17T11:24:46.309Z,14.90
2023-03-17T11:25:46.301Z,14.95
2023-03-17T11:26:46.332Z,14.80
2023-03-17T11:27:46.276Z,14.88
2023-03-17T11:28:46.265Z,15.08
2023-03-17T11:29:46.264Z,15.19
2023-03-17T11:30:46.238Z,14.93
2023-03-17T11:31:46.254Z,14.99
2023-03-17T11:32:46.247Z,15.42
2023-03-17T11:33:46.214Z,15.39
2023-03-17T11:34:46.211Z,15.61
2023-03-17T11:35:46.281Z,15.72
2023-03-17T11:36:46.195Z,15.70
2023-03-17T11:37:46.204Z,15.76
2023-03-17T11:38:46.165Z,15.84
2023-03-17T11:39:46.147Z,15.70
2023-03-17T11:40:46.122Z,15.84
2023-03-17T11:41:46.151Z,15.85
2023-03-17T11:42:46.119Z,15.63
2023-03-17T11:43:46.144Z,15.64
2023-03-17T11:44:48.901Z,15.74
2023-03-17T11:45:46.104Z,15.67
2023-03-17T11:46:46.062Z,15.88
2023-03-17T11:47:46.067Z,15.74
2023-03-17T11:48:46.072Z,15.89
2023-03-17T11:49:46.068Z,15.92
2023-03-17T11:50:49.003Z,15.92
2023-03-17T11:51:46.022Z,16.00
2023-03-17T11:52:45.994Z,16.14
2023-03-17T11:53:45.997Z,16.23
2023-03-17T11:54:46.017Z,16.04
2023-03-17T11:55:45.964Z,16.01
2023-03-17T11:56:46.035Z,16.01
2023-03-17T11:57:45.944Z,16.14
2023-03-17T11:58:45.935Z,15.76
2023-03-17T11:59:45.955Z,15.78
2023-03-17T12:00:45.927Z,16.00
2023-03-17T12:01:45.889Z,16.03
2023-03-17T12:02:45.932Z,15.94
2023-03-17T12:03:45.967Z,15.94
2023-03-17T12:04:45.947Z,15.89
2023-03-17T12:05:45.923Z,15.68
2023-03-17T12:06:45.832Z,15.84
2023-03-17T12:07:45.825Z,15.96
2023-03-17T12:08:45.813Z,16.25
2023-03-17T12:09:45.815Z,16.14
2023-03-17T12:10:45.815Z,16.14
2023-03-17T12:11:45.826Z,16.15
2023-03-17T12:12:45.781Z,16.09
2023-03-17T12:13:45.874Z,16.18
2023-03-17T12:14:45.788Z,15.86
2023-03-17T12:15:45.783Z,16.03
2023-03-17T12:16:45.740Z,16.31
2023-03-17T12:17:45.732Z,16.26
2023-03-17T12:18:45.712Z,16.65
2023-03-17T12:19:45.708Z,16.67
2023-03-17T12:20:45.664Z,16.53
2023-03-17T12:21:45.653Z,16.22
2023-03-17T12:22:45.643Z,16.04
2023-03-17T12:23:45.691Z,16.35
2023-03-17T12:24:45.622Z,16.33
2023-03-17T12:25:45.653Z,16.63
2023-03-17T12:26:45.598Z,16.99
2023-03-17T12:27:45.639Z,17.18
2023-03-17T12:28:45.575Z,16.96
2023-03-17T12:29:45.597Z,16.83
2023-03-17T12:30:45.673Z,16.98
2023-03-17T12:31:45.524Z,17.11
2023-03-17T12:32:45.600Z,17.26
2023-03-17T12:33:45.508Z,16.90
2023-03-17T12:34:45.523Z,16.80
2023-03-17T12:35:45.510Z,16.96
2023-03-17T12:36:45.513Z,17.17
2023-03-17T12:37:45.474Z,17.46
2023-03-17T12:38:45.487Z,17.54
2023-03-17T12:39:45.462Z,17.66
2023-03-17T12:40:45.496Z,17.57
2023-03-17T12:41:45.447Z,17.41
2023-03-17T12:42:45.461Z,16.86
2023-03-17T12:43:45.393Z,16.81
2023-03-17T12:44:45.375Z,17.00
2023-03-17T12:45:45.380Z,16.99
2023-03-17T12:46:45.397Z,17.04
2023-03-17T12:47:45.492Z,17.40
2023-03-17T12:48:45.340Z,17.57
2023-03-17T12:49:45.381Z,17.78
2023-03-17T12:50:45.326Z,17.78
2023-03-17T12:51:45.310Z,17.71
2023-03-17T12:52:45.301Z,17.64
2023-03-17T12:53:45.309Z,17.59
2023-03-17T12:54:45.300Z,17.63
2023-03-17T12:55:45.262Z,17.28
2023-03-17T12:56:45.288Z,17.47
2023-03-17T12:57:45.259Z,17.62
2023-03-17T12:58:45.219Z,17.59
2023-03-17T12:59:45.352Z,17.69
2023-03-17T13:00:45.223Z,17.73
2023-03-17T13:01:45.261Z,17.79
2023-03-17T13:02:45.179Z,17.69
2023-03-17T13:03:45.208Z,17.47
2023-03-17T13:04:45.188Z,17.14
2023-03-17T13:05:45.146Z,17.33
2023-03-17T13:06:45.131Z,17.64
2023-03-17T13:07:45.140Z,17.88
2023-03-17T13:08:45.102Z,18.13